sensor_id;sensor_type;location;lat;lon;timestamp;pressure;altitude;pressure_sealevel;temperature;humidity
17855;BME280;9053;53.358;6.382;2023-05-12T00:14:18;101752.09;;;12.16;100.00
17855;BME280;9053;53.358;6.382;2023-05-12T00:20:38;101749.00;;;12.26;100.00
17855;BME280;9053;53.358;6.382;2023-05-12T00:55:55;101748.09;;;12.26;100.00
17855;BME280;9053;53.358;6.382;2023-05-12T00:58:33;101734.22;;;12.30;100.00
17855;BME280;9053;53.358;6.382;2023-05-12T01:01:25;101745.53;;;12.27;100.00
17855;BME280;9053;53.358;6.382;2023-05-12T01:04:51;101746.44;;;12.28;100.00
17855;BME280;9053;53.358;6.382;2023-05-12T01:07:41;101733.59;;;12.37;100.00
17855;BME280;9053;53.358;6.382;2023-05-12T01:14:51;101737.88;;;12.33;100.00
17855;BME280;9053;53.358;6.382;2023-05-12T01:18:05;101733.03;;;12.44;100.00
17855;BME280;9053;53.358;6.382;2023-05-12T01:27:45;101732.97;;;12.43;100.00
17855;BME280;9053;53.358;6.382;2023-05-12T01:30:25;101741.66;;;12.40;100.00
17855;BME280;9053;53.358;6.382;2023-05-12T01:33:15;101735.34;;;12.37;100.00
17855;BME280;9053;53.358;6.382;2023-05-12T01:36:05;101738.06;;;12.38;100.00
17855;BME280;9053;53.358;6.382;2023-05-12T02:16:21;101738.25;;;12.22;100.00
17855;BME280;9053;53.358;6.382;2023-05-12T02:19:27;101747.00;;;12.21;100.00
17855;BME280;9053;53.358;6.382;2023-05-12T02:22:40;101748.75;;;12.20;100.00
17855;BME280;9053;53.358;6.382;2023-05-12T02:25:50;101746.56;;;12.31;100.00
17855;BME280;9053;53.358;6.382;2023-05-12T02:42:11;101751.94;;;12.34;100.00
17855;BME280;9053;53.358;6.382;2023-05-12T03:24:59;101749.75;;;12.67;100.00
17855;BME280;9053;53.358;6.382;2023-05-12T03:27:53;101766.69;;;12.72;100.00
17855;BME280;9053;53.358;6.382;2023-05-12T03:33:25;101754.63;;;12.79;100.00
17855;BME280;9053;53.358;6.382;2023-05-12T03:39:39;101759.09;;;12.80;100.00
17855;BME280;9053;53.358;6.382;2023-05-12T03:46:18;101763.53;;;12.81;100.00
17855;BME280;9053;53.358;6.382;2023-05-12T03:48:52;101762.63;;;12.81;100.00
17855;BME280;9053;53.358;6.382;2023-05-12T03:51:23;101768.88;;;12.83;100.00
17855;BME280;9053;53.358;6.382;2023-05-12T03:54:07;101759.31;;;12.86;100.00
17855;BME280;9053;53.358;6.382;2023-05-12T03:56:37;101765.63;;;12.90;100.00
17855;BME280;9053;53.358;6.382;2023-05-12T03:59:18;101768.25;;;12.90;100.00
17855;BME280;9053;53.358;6.382;2023-05-12T04:01:56;101769.34;;;12.95;100.00
17855;BME280;9053;53.358;6.382;2023-05-12T04:30:09;101770.59;;;12.82;100.00
17855;BME280;9053;53.358;6.382;2023-05-12T05:54:56;101841.63;;;14.14;100.00
17855;BME280;9053;53.358;6.382;2023-05-12T05:57:33;101841.72;;;14.17;100.00
17855;BME280;9053;53.358;6.382;2023-05-12T06:00:06;101839.25;;;14.22;100.00
17855;BME280;9053;53.358;6.382;2023-05-12T06:02:41;101847.22;;;14.23;100.00
17855;BME280;9053;53.358;6.382;2023-05-12T06:05:13;101846.41;;;14.26;100.00
17855;BME280;9053;53.358;6.382;2023-05-12T06:07:46;101849.03;;;14.24;100.00
17855;BME280;9053;53.358;6.382;2023-05-12T06:10:20;101853.44;;;14.24;100.00
17855;BME280;9053;53.358;6.382;2023-05-12T06:12:57;101851.06;;;14.32;100.00
17855;BME280;9053;53.358;6.382;2023-05-12T06:15:27;101852.91;;;14.34;100.00
17855;BME280;9053;53.358;6.382;2023-05-12T06:18:02;101862.53;;;14.32;100.00
17855;BME280;9053;53.358;6.382;2023-05-12T06:20:35;101854.59;;;14.32;100.00
17855;BME280;9053;53.358;6.382;2023-05-12T06:23:07;101864.53;;;14.39;100.00
17855;BME280;9053;53.358;6.382;2023-05-12T06:25:42;101870.66;;;14.38;100.00
17855;BME280;9053;53.358;6.382;2023-05-12T06:28:19;101862.78;;;14.40;100.00
17855;BME280;9053;53.358;6.382;2023-05-12T06:31:00;101867.56;;;14.50;100.00
17855;BME280;9053;53.358;6.382;2023-05-12T06:33:35;101864.31;;;14.57;100.00
17855;BME280;9053;53.358;6.382;2023-05-12T06:36:11;101869.69;;;14.60;100.00
17855;BME280;9053;53.358;6.382;2023-05-12T06:38:41;101870.81;;;14.67;100.00
17855;BME280;9053;53.358;6.382;2023-05-12T06:41:13;101860.22;;;14.67;100.00
17855;BME280;9053;53.358;6.382;2023-05-12T06:43:45;101872.69;;;14.71;100.00
17855;BME280;9053;53.358;6.382;2023-05-12T06:46:15;101868.19;;;14.68;100.00
17855;BME280;9053;53.358;6.382;2023-05-12T06:48:45;101879.81;;;14.72;100.00
17855;BME280;9053;53.358;6.382;2023-05-12T06:51:15;101880.69;;;14.73;100.00
17855;BME280;9053;53.358;6.382;2023-05-12T06:53:45;101877.34;;;14.78;100.00
17855;BME280;9053;53.358;6.382;2023-05-12T06:56:17;101887.94;;;14.78;100.00
17855;BME280;9053;53.358;6.382;2023-05-12T06:58:49;101887.94;;;14.78;100.00
17855;BME280;9053;53.358;6.382;2023-05-12T07:01:18;101891.28;;;14.73;100.00
17855;BME280;9053;53.358;6.382;2023-05-12T07:03:48;101894.94;;;14.76;100.00
17855;BME280;9053;53.358;6.382;2023-05-12T07:06:18;101896.13;;;14.86;100.00
17855;BME280;9053;53.358;6.382;2023-05-12T07:08:48;101906.28;;;14.99;100.00
17855;BME280;9053;53.358;6.382;2023-05-12T07:11:21;101909.16;;;15.05;100.00
17855;BME280;9053;53.358;6.382;2023-05-12T07:13:52;101910.25;;;15.12;100.00
17855;BME280;9053;53.358;6.382;2023-05-12T07:16:22;101915.75;;;15.18;100.00
17855;BME280;9053;53.358;6.382;2023-05-12T07:18:53;101902.63;;;15.23;100.00
17855;BME280;9053;53.358;6.382;2023-05-12T07:21:23;101915.13;;;15.27;100.00
17855;BME280;9053;53.358;6.382;2023-05-12T07:23:54;101914.38;;;15.31;100.00
17855;BME280;9053;53.358;6.382;2023-05-12T07:26:27;101907.56;;;15.39;100.00
17855;BME280;9053;53.358;6.382;2023-05-12T07:28:57;101903.19;;;15.40;100.00
17855;BME280;9053;53.358;6.382;2023-05-12T07:31:29;101900.53;;;15.40;100.00
17855;BME280;9053;53.358;6.382;2023-05-12T07:33:59;101903.19;;;15.40;100.00
17855;BME280;9053;53.358;6.382;2023-05-12T07:36:30;101913.63;;;15.35;100.00
17855;BME280;9053;53.358;6.382;2023-05-12T07:39:00;101915.09;;;15.25;100.00
17855;BME280;9053;53.358;6.382;2023-05-12T07:41:32;101927.31;;;15.22;100.00
17855;BME280;9053;53.358;6.382;2023-05-12T07:44:02;101932.59;;;15.20;100.00
17855;BME280;9053;53.358;6.382;2023-05-12T07:46:32;101932.53;;;15.19;100.00
17855;BME280;9053;53.358;6.382;2023-05-12T07:49:02;101929.72;;;15.14;100.00
17855;BME280;9053;53.358;6.382;2023-05-12T07:51:33;101923.59;;;15.15;100.00
17855;BME280;9053;53.358;6.382;2023-05-12T07:54:04;101922.72;;;15.14;100.00
17855;BME280;9053;53.358;6.382;2023-05-12T07:56:38;101922.09;;;15.23;100.00
17855;BME280;9053;53.358;6.382;2023-05-12T07:59:11;101922.09;;;15.23;100.00
17855;BME280;9053;53.358;6.382;2023-05-12T08:01:41;101925.47;;;15.19;100.00
17855;BME280;9053;53.358;6.382;2023-05-12T08:04:11;101916.94;;;15.28;100.00
17855;BME280;9053;53.358;6.382;2023-05-12T08:06:41;101932.28;;;15.38;100.00
17855;BME280;9053;53.358;6.382;2023-05-12T08:09:11;101934.19;;;15.42;100.00
17855;BME280;9053;53.358;6.382;2023-05-12T08:11:44;101926.03;;;15.36;100.00
17855;BME280;9053;53.358;6.382;2023-05-12T08:14:17;101931.47;;;15.41;100.00
17855;BME280;9053;53.358;6.382;2023-05-12T08:16:48;101941.22;;;15.42;100.00
17855;BME280;9053;53.358;6.382;2023-05-12T08:19:18;101940.63;;;15.50;100.00
17855;BME280;9053;53.358;6.382;2023-05-12T08:21:49;101941.50;;;15.51;100.00
17855;BME280;9053;53.358;6.382;2023-05-12T08:24:19;101936.34;;;15.55;100.00
17855;BME280;9053;53.358;6.382;2023-05-12T08:26:51;101940.28;;;15.68;100.00
17855;BME280;9053;53.358;6.382;2023-05-12T08:29:21;101950.50;;;15.85;100.00
17855;BME280;9053;53.358;6.382;2023-05-12T08:31:51;101949.13;;;15.97;100.00
17855;BME280;9053;53.358;6.382;2023-05-12T08:34:21;101937.69;;;16.00;100.00
17855;BME280;9053;53.358;6.382;2023-05-12T08:36:51;101942.53;;;16.15;100.00
17855;BME280;9053;53.358;6.382;2023-05-12T08:39:21;101945.81;;;16.36;100.00
17855;BME280;9053;53.358;6.382;2023-05-12T08:42:00;101943.44;;;16.47;100.00
17855;BME280;9053;53.358;6.382;2023-05-12T08:44:36;101942.97;;;16.62;100.00
17855;BME280;9053;53.358;6.382;2023-05-12T08:47:07;101932.59;;;16.73;100.00
17855;BME280;9053;53.358;6.382;2023-05-12T08:49:41;101945.34;;;16.84;100.00
17855;BME280;9053;53.358;6.382;2023-05-12T08:52:18;101940.38;;;16.98;100.00
17855;BME280;9053;53.358;6.382;2023-05-12T08:54:55;101947.00;;;17.16;100.00
17855;BME280;9053;53.358;6.382;2023-05-12T08:57:33;101950.59;;;17.16;100.00
17855;BME280;9053;53.358;6.382;2023-05-12T09:47:35;101959.19;;;19.20;100.00
17855;BME280;9053;53.358;6.382;2023-05-12T09:58:17;101972.72;;;19.31;100.00
17855;BME280;9053;53.358;6.382;2023-05-12T10:00:55;101970.97;;;19.33;100.00
17855;BME280;9053;53.358;6.382;2023-05-12T10:16:07;101968.00;;;19.71;100.00
17855;BME280;9053;53.358;6.382;2023-05-12T10:18:41;101967.22;;;19.79;99.99
17855;BME280;9053;53.358;6.382;2023-05-12T10:21:11;101968.97;;;19.77;98.60
17855;BME280;9053;53.358;6.382;2023-05-12T10:23:56;101967.19;;;19.76;96.50
17855;BME280;9053;53.358;6.382;2023-05-12T10:26:31;101970.88;;;19.86;95.98
17855;BME280;9053;53.358;6.382;2023-05-12T10:29:04;101972.88;;;20.01;95.68
17855;BME280;9053;53.358;6.382;2023-05-12T10:31:38;101970.28;;;20.08;94.40
17855;BME280;9053;53.358;6.382;2023-05-12T10:34:16;101976.53;;;20.12;94.28
17855;BME280;9053;53.358;6.382;2023-05-12T10:36:48;101976.50;;;20.06;93.73
17855;BME280;9053;53.358;6.382;2023-05-12T10:39:27;101979.22;;;20.12;93.99
17855;BME280;9053;53.358;6.382;2023-05-12T10:42:08;101977.50;;;20.17;93.96
17855;BME280;9053;53.358;6.382;2023-05-12T10:44:50;101981.09;;;20.21;93.82
17855;BME280;9053;53.358;6.382;2023-05-12T10:47:30;101976.72;;;20.24;93.83
17855;BME280;9053;53.358;6.382;2023-05-12T10:50:07;101976.75;;;20.30;93.72
17855;BME280;9053;53.358;6.382;2023-05-12T10:52:39;101984.63;;;20.18;93.68
17855;BME280;9053;53.358;6.382;2023-05-12T10:55:11;101969.47;;;20.16;93.62
17855;BME280;9053;53.358;6.382;2023-05-12T10:57:51;101979.38;;;20.26;93.39
17855;BME280;9053;53.358;6.382;2023-05-12T11:00:25;101976.84;;;20.37;93.09
17855;BME280;9053;53.358;6.382;2023-05-12T11:03:10;101969.75;;;20.39;92.86
17855;BME280;9053;53.358;6.382;2023-05-12T11:05:46;101981.53;;;20.56;93.35
17855;BME280;9053;53.358;6.382;2023-05-12T11:08:35;101970.00;;;20.60;93.31
17855;BME280;9053;53.358;6.382;2023-05-12T11:11:06;101969.13;;;20.63;93.59
17855;BME280;9053;53.358;6.382;2023-05-12T11:13:36;101973.41;;;20.47;93.59
17855;BME280;9053;53.358;6.382;2023-05-12T11:16:11;101975.19;;;20.48;93.46
17855;BME280;9053;53.358;6.382;2023-05-12T11:18:43;101984.06;;;20.44;93.78
17855;BME280;9053;53.358;6.382;2023-05-12T11:21:14;101981.38;;;20.44;93.89
17855;BME280;9053;53.358;6.382;2023-05-12T11:23:49;101983.13;;;20.43;94.42
17855;BME280;9053;53.358;6.382;2023-05-12T11:26:22;101982.31;;;20.47;94.29
17855;BME280;9053;53.358;6.382;2023-05-12T11:28:52;101984.06;;;20.45;94.50
17855;BME280;9053;53.358;6.382;2023-05-12T11:31:21;101986.69;;;20.41;94.44
17855;BME280;9053;53.358;6.382;2023-05-12T11:34:04;101987.69;;;20.49;94.42
17855;BME280;9053;53.358;6.382;2023-05-12T11:36:40;101985.00;;;20.49;94.20
17855;BME280;9053;53.358;6.382;2023-05-12T11:39:15;101975.31;;;20.59;94.58
17855;BME280;9053;53.358;6.382;2023-05-12T11:41:47;101986.00;;;20.57;94.51
17855;BME280;9053;53.358;6.382;2023-05-12T11:44:31;101988.59;;;20.52;94.39
17855;BME280;9053;53.358;6.382;2023-05-12T11:47:02;101987.72;;;20.52;94.17
17855;BME280;9053;53.358;6.382;2023-05-12T11:49:44;101986.88;;;20.55;94.51
17855;BME280;9053;53.358;6.382;2023-05-12T11:52:15;101994.03;;;20.57;94.15
17855;BME280;9053;53.358;6.382;2023-05-12T11:54:48;101986.94;;;20.61;93.65
17855;BME280;9053;53.358;6.382;2023-05-12T11:57:24;101995.88;;;20.63;93.63
17855;BME280;9053;53.358;6.382;2023-05-12T11:59:56;101994.22;;;20.74;92.64
17855;BME280;9053;53.358;6.382;2023-05-12T12:02:26;101992.22;;;20.56;91.99
17855;BME280;9053;53.358;6.382;2023-05-12T12:04:59;101997.50;;;20.51;92.07
17855;BME280;9053;53.358;6.382;2023-05-12T12:07:30;101995.63;;;20.46;91.78
17855;BME280;9053;53.358;6.382;2023-05-12T12:10:10;102001.13;;;20.55;92.27
17855;BME280;9053;53.358;6.382;2023-05-12T12:12:40;102000.28;;;20.61;92.52
17855;BME280;9053;53.358;6.382;2023-05-12T12:15:11;102006.38;;;20.49;92.76
17855;BME280;9053;53.358;6.382;2023-05-12T12:17:41;101999.97;;;20.35;92.37
17855;BME280;9053;53.358;6.382;2023-05-12T12:20:14;102006.22;;;20.35;92.88
17855;BME280;9053;53.358;6.382;2023-05-12T12:22:44;102008.03;;;20.36;93.36
17855;BME280;9053;53.358;6.382;2023-05-12T12:25:14;102000.97;;;20.41;93.48
17855;BME280;9053;53.358;6.382;2023-05-12T12:27:45;102009.19;;;20.57;94.68
17855;BME280;9053;53.358;6.382;2023-05-12T12:30:15;102008.19;;;20.53;94.86
17855;BME280;9053;53.358;6.382;2023-05-12T12:32:45;102000.31;;;20.62;95.63
17855;BME280;9053;53.358;6.382;2023-05-12T12:35:18;102001.41;;;20.80;96.34
17855;BME280;9053;53.358;6.382;2023-05-12T12:37:49;101995.22;;;20.85;96.22
17855;BME280;9053;53.358;6.382;2023-05-12T12:40:19;101999.59;;;20.79;95.22
17855;BME280;9053;53.358;6.382;2023-05-12T12:42:49;102004.84;;;20.66;95.03
17855;BME280;9053;53.358;6.382;2023-05-12T12:45:19;102014.53;;;20.61;95.08
17855;BME280;9053;53.358;6.382;2023-05-12T12:47:50;102004.78;;;20.63;95.15
17855;BME280;9053;53.358;6.382;2023-05-12T12:50:23;102010.22;;;20.69;95.22
17855;BME280;9053;53.358;6.382;2023-05-12T12:52:53;102005.69;;;20.65;95.16
17855;BME280;9053;53.358;6.382;2023-05-12T12:55:23;102010.25;;;20.75;94.78
17855;BME280;9053;53.358;6.382;2023-05-12T12:57:53;102011.31;;;20.90;94.76
17855;BME280;9053;53.358;6.382;2023-05-12T13:00:23;102023.78;;;20.89;93.81
17855;BME280;9053;53.358;6.382;2023-05-12T13:02:55;102009.44;;;20.83;92.32
17855;BME280;9053;53.358;6.382;2023-05-12T13:05:27;102021.88;;;20.78;91.23
17855;BME280;9053;53.358;6.382;2023-05-12T13:07:57;102015.25;;;20.48;89.75
17855;BME280;9053;53.358;6.382;2023-05-12T13:10:27;102012.41;;;20.31;88.63
17855;BME280;9053;53.358;6.382;2023-05-12T13:12:57;102020.34;;;20.25;88.53
17855;BME280;9053;53.358;6.382;2023-05-12T13:15:27;102010.41;;;20.15;87.96
17855;BME280;9053;53.358;6.382;2023-05-12T13:18:00;102016.72;;;20.20;88.27
17855;BME280;9053;53.358;6.382;2023-05-12T13:20:32;102029.13;;;20.18;88.25
17855;BME280;9053;53.358;6.382;2023-05-12T13:23:02;102021.94;;;20.12;88.41
17855;BME280;9053;53.358;6.382;2023-05-12T13:25:32;102010.38;;;20.13;88.83
17855;BME280;9053;53.358;6.382;2023-05-12T13:28:02;102023.66;;;20.07;87.78
17855;BME280;9053;53.358;6.382;2023-05-12T13:30:32;102016.56;;;20.10;87.81
17855;BME280;9053;53.358;6.382;2023-05-12T13:33:02;102006.81;;;20.11;87.75
17855;BME280;9053;53.358;6.382;2023-05-12T13:35:35;102012.16;;;20.11;86.42
17855;BME280;9053;53.358;6.382;2023-05-12T13:38:05;102013.00;;;20.08;84.94
17855;BME280;9053;53.358;6.382;2023-05-12T13:40:36;102013.03;;;20.13;84.61
17855;BME280;9053;53.358;6.382;2023-05-12T13:43:07;102022.03;;;20.18;83.62
17855;BME280;9053;53.358;6.382;2023-05-12T13:45:38;102015.78;;;20.16;82.81
17855;BME280;9053;53.358;6.382;2023-05-12T13:48:08;102020.16;;;20.11;82.07
17855;BME280;9053;53.358;6.382;2023-05-12T13:50:41;102013.97;;;20.15;82.00
17855;BME280;9053;53.358;6.382;2023-05-12T13:53:11;102018.56;;;20.24;81.88
17855;BME280;9053;53.358;6.382;2023-05-12T13:55:41;102022.91;;;20.17;80.93
17855;BME280;9053;53.358;6.382;2023-05-12T13:58:11;102017.50;;;20.13;81.54
17855;BME280;9053;53.358;6.382;2023-05-12T14:00:41;102010.28;;;20.04;81.14
17855;BME280;9053;53.358;6.382;2023-05-12T14:03:10;102007.50;;;19.98;80.65
17855;BME280;9053;53.358;6.382;2023-05-12T14:05:43;102019.03;;;19.95;81.09
17855;BME280;9053;53.358;6.382;2023-05-12T14:08:13;102010.00;;;19.85;80.87
17855;BME280;9053;53.358;6.382;2023-05-12T14:10:43;102012.66;;;19.85;80.53
17855;BME280;9053;53.358;6.382;2023-05-12T14:13:13;102011.81;;;19.86;80.50
17855;BME280;9053;53.358;6.382;2023-05-12T14:15:43;102011.72;;;19.79;79.52
17855;BME280;9053;53.358;6.382;2023-05-12T14:18:17;102016.22;;;19.84;80.03
17855;BME280;9053;53.358;6.382;2023-05-12T14:20:50;102006.75;;;20.06;81.05
17855;BME280;9053;53.358;6.382;2023-05-12T14:23:20;102015.69;;;20.10;80.87
17855;BME280;9053;53.358;6.382;2023-05-12T14:25:50;102009.44;;;20.06;80.98
17855;BME280;9053;53.358;6.382;2023-05-12T14:28:20;102013.13;;;20.18;81.47
17855;BME280;9053;53.358;6.382;2023-05-12T14:30:50;102006.94;;;20.22;82.07
17855;BME280;9053;53.358;6.382;2023-05-12T14:33:23;102015.94;;;20.30;82.79
17855;BME280;9053;53.358;6.382;2023-05-12T14:35:55;102005.19;;;20.25;82.94
17855;BME280;9053;53.358;6.382;2023-05-12T14:38:33;102008.75;;;20.26;83.00
17855;BME280;9053;53.358;6.382;2023-05-12T14:41:03;102019.31;;;20.15;82.71
17855;BME280;9053;53.358;6.382;2023-05-12T14:43:34;102004.16;;;20.13;83.35
17855;BME280;9053;53.358;6.382;2023-05-12T14:46:04;102004.25;;;20.19;84.26
17855;BME280;9053;53.358;6.382;2023-05-12T14:48:34;102010.47;;;20.19;85.04
17855;BME280;9053;53.358;6.382;2023-05-12T14:51:07;102016.63;;;20.12;84.82
17855;BME280;9053;53.358;6.382;2023-05-12T14:53:36;102011.09;;;19.98;84.87
17855;BME280;9053;53.358;6.382;2023-05-12T14:56:06;102011.19;;;20.07;85.46
17855;BME280;9053;53.358;6.382;2023-05-12T14:58:43;102026.41;;;20.13;85.60
17855;BME280;9053;53.358;6.382;2023-05-12T15:01:12;102019.28;;;20.12;85.45
17855;BME280;9053;53.358;6.382;2023-05-12T15:03:43;102015.78;;;20.16;85.73
17855;BME280;9053;53.358;6.382;2023-05-12T15:06:15;102019.34;;;20.18;85.38
17855;BME280;9053;53.358;6.382;2023-05-12T15:08:50;102020.19;;;20.16;85.20
17855;BME280;9053;53.358;6.382;2023-05-12T15:11:20;102015.88;;;20.25;85.81
17855;BME280;9053;53.358;6.382;2023-05-12T15:13:50;102019.59;;;20.38;86.39
17855;BME280;9053;53.358;6.382;2023-05-12T15:16:20;102025.03;;;20.46;86.61
17855;BME280;9053;53.358;6.382;2023-05-12T15:18:51;102033.09;;;20.47;86.99
17855;BME280;9053;53.358;6.382;2023-05-12T15:21:24;102029.28;;;20.28;86.83
17855;BME280;9053;53.358;6.382;2023-05-12T15:23:54;102040.03;;;20.31;87.81
17855;BME280;9053;53.358;6.382;2023-05-12T15:26:24;102042.56;;;20.22;88.01
17855;BME280;9053;53.358;6.382;2023-05-12T15:29:01;102028.00;;;19.99;88.58
17855;BME280;9053;53.358;6.382;2023-05-12T15:31:30;102031.50;;;19.95;88.95
17855;BME280;9053;53.358;6.382;2023-05-12T15:34:03;102037.94;;;20.09;89.74
17855;BME280;9053;53.358;6.382;2023-05-12T15:36:35;102028.81;;;19.93;89.98
17855;BME280;9053;53.358;6.382;2023-05-12T15:39:05;102034.09;;;19.88;90.34
17855;BME280;9053;53.358;6.382;2023-05-12T15:41:35;102033.22;;;19.89;90.96
17855;BME280;9053;53.358;6.382;2023-05-12T15:44:05;102038.41;;;19.80;91.06
17855;BME280;9053;53.358;6.382;2023-05-12T15:46:35;102038.28;;;19.71;91.00
17855;BME280;9053;53.358;6.382;2023-05-12T15:49:05;102029.47;;;19.77;91.50
17855;BME280;9053;53.358;6.382;2023-05-12T15:51:38;102037.44;;;19.75;91.75
17855;BME280;9053;53.358;6.382;2023-05-12T15:54:08;102029.41;;;19.71;91.66
17855;BME280;9053;53.358;6.382;2023-05-12T15:56:38;102043.47;;;19.65;91.28
17855;BME280;9053;53.358;6.382;2023-05-12T15:59:10;102037.09;;;19.54;90.98
17855;BME280;9053;53.358;6.382;2023-05-12T16:01:40;102052.97;;;19.46;90.40
17855;BME280;9053;53.358;6.382;2023-05-12T16:04:10;102051.88;;;19.35;90.60
17855;BME280;9053;53.358;6.382;2023-05-12T16:06:43;102055.94;;;19.11;90.63
17855;BME280;9053;53.358;6.382;2023-05-12T16:09:13;102055.94;;;19.11;91.23
17855;BME280;9053;53.358;6.382;2023-05-12T16:11:44;102056.78;;;19.09;91.48
17855;BME280;9053;53.358;6.382;2023-05-12T16:14:14;102062.59;;;18.86;91.93
17855;BME280;9053;53.358;6.382;2023-05-12T16:16:44;102064.03;;;18.72;92.29
17855;BME280;9053;53.358;6.382;2023-05-12T16:19:15;102058.34;;;18.53;92.88
17855;BME280;9053;53.358;6.382;2023-05-12T16:21:48;102064.56;;;18.54;93.33
17855;BME280;9053;53.358;6.382;2023-05-12T16:24:19;102055.38;;;18.38;93.60
17855;BME280;9053;53.358;6.382;2023-05-12T16:26:49;102054.50;;;18.39;94.00
17855;BME280;9053;53.358;6.382;2023-05-12T16:29:19;102056.19;;;18.35;94.20
17855;BME280;9053;53.358;6.382;2023-05-12T16:31:49;102054.22;;;18.27;94.17
17855;BME280;9053;53.358;6.382;2023-05-12T16:34:19;102050.38;;;18.12;94.12
17855;BME280;9053;53.358;6.382;2023-05-12T16:36:53;102054.72;;;18.07;94.55
17855;BME280;9053;53.358;6.382;2023-05-12T16:39:23;102048.22;;;17.96;94.27
17855;BME280;9053;53.358;6.382;2023-05-12T16:41:53;102049.94;;;17.92;93.90
17855;BME280;9053;53.358;6.382;2023-05-12T16:44:22;102055.28;;;17.94;93.75
17855;BME280;9053;53.358;6.382;2023-05-12T16:46:53;102047.28;;;17.94;93.71
17855;BME280;9053;53.358;6.382;2023-05-12T16:49:23;102052.66;;;17.95;93.50
17855;BME280;9053;53.358;6.382;2023-05-12T16:51:55;102054.28;;;17.89;93.07
17855;BME280;9053;53.358;6.382;2023-05-12T16:54:25;102046.56;;;18.00;93.39
17855;BME280;9053;53.358;6.382;2023-05-12T16:56:55;102051.06;;;18.02;93.42
17855;BME280;9053;53.358;6.382;2023-05-12T16:59:27;102043.84;;;17.98;93.14
17855;BME280;9053;53.358;6.382;2023-05-12T17:01:58;102056.38;;;18.04;93.20
17855;BME280;9053;53.358;6.382;2023-05-12T17:04:28;102049.94;;;17.92;92.98
17855;BME280;9053;53.358;6.382;2023-05-12T17:07:02;102055.38;;;17.99;93.13
17855;BME280;9053;53.358;6.382;2023-05-12T17:09:33;102049.22;;;18.01;93.14
17855;BME280;9053;53.358;6.382;2023-05-12T17:12:04;102058.22;;;18.06;92.91
17855;BME280;9053;53.358;6.382;2023-05-12T17:14:34;102052.78;;;18.00;92.99
17855;BME280;9053;53.358;6.382;2023-05-12T17:17:05;102058.22;;;18.06;92.93
17855;BME280;9053;53.358;6.382;2023-05-12T17:19:35;102058.22;;;18.06;92.84
17855;BME280;9053;53.358;6.382;2023-05-12T17:22:10;102052.94;;;18.08;92.65
17855;BME280;9053;53.358;6.382;2023-05-12T17:24:40;102062.75;;;18.10;92.44
17855;BME280;9053;53.358;6.382;2023-05-12T17:27:10;102061.88;;;18.11;92.49
17855;BME280;9053;53.358;6.382;2023-05-12T17:29:40;102066.38;;;18.12;92.41
17855;BME280;9053;53.358;6.382;2023-05-12T17:32:10;102063.81;;;18.19;92.10
17855;BME280;9053;53.358;6.382;2023-05-12T17:34:39;102071.78;;;18.17;91.70
17855;BME280;9053;53.358;6.382;2023-05-12T17:37:12;102067.31;;;18.16;91.56
17855;BME280;9053;53.358;6.382;2023-05-12T17:39:44;102070.03;;;18.19;91.42
17855;BME280;9053;53.358;6.382;2023-05-12T17:42:16;102070.03;;;18.17;91.04
17855;BME280;9053;53.358;6.382;2023-05-12T17:44:46;102076.13;;;18.13;90.89
17855;BME280;9053;53.358;6.382;2023-05-12T17:47:15;102075.19;;;18.10;90.51
17855;BME280;9053;53.358;6.382;2023-05-12T17:49:46;102074.13;;;18.02;90.56
17855;BME280;9053;53.358;6.382;2023-05-12T17:52:18;102079.28;;;17.95;90.44
17855;BME280;9053;53.358;6.382;2023-05-12T17:54:52;102085.09;;;17.79;90.04
17855;BME280;9053;53.358;6.382;2023-05-12T17:57:23;102075.38;;;17.80;90.22
17855;BME280;9053;53.358;6.382;2023-05-12T17:59:53;102089.78;;;17.89;90.28
17855;BME280;9053;53.358;6.382;2023-05-12T18:02:22;102086.38;;;17.95;90.07
17855;BME280;9053;53.358;6.382;2023-05-12T18:04:52;102085.38;;;17.90;89.75
17855;BME280;9053;53.358;6.382;2023-05-12T18:07:25;102088.81;;;17.86;89.53
17855;BME280;9053;53.358;6.382;2023-05-12T18:09:56;102094.94;;;17.82;89.51
17855;BME280;9053;53.358;6.382;2023-05-12T18:12:26;102094.00;;;17.80;89.52
17855;BME280;9053;53.358;6.382;2023-05-12T18:14:56;102101.00;;;17.78;89.56
17855;BME280;9053;53.358;6.382;2023-05-12T18:17:26;102101.78;;;17.73;89.39
17855;BME280;9053;53.358;6.382;2023-05-12T18:19:57;102103.59;;;17.74;89.30
17855;BME280;9053;53.358;6.382;2023-05-12T18:22:30;102106.13;;;17.70;89.23
17855;BME280;9053;53.358;6.382;2023-05-12T18:24:59;102107.03;;;17.70;89.25
17855;BME280;9053;53.358;6.382;2023-05-12T18:27:29;102108.94;;;17.76;89.06
17855;BME280;9053;53.358;6.382;2023-05-12T18:29:59;102113.13;;;17.66;88.84
17855;BME280;9053;53.358;6.382;2023-05-12T18:32:29;102121.09;;;17.66;88.92
17855;BME280;9053;53.358;6.382;2023-05-12T18:34:59;102114.13;;;17.70;88.83
17855;BME280;9053;53.358;6.382;2023-05-12T18:37:35;102122.94;;;17.67;88.83
17855;BME280;9053;53.358;6.382;2023-05-12T18:40:07;102120.34;;;17.70;88.50
17855;BME280;9053;53.358;6.382;2023-05-12T18:42:37;102123.78;;;17.66;88.01
17855;BME280;9053;53.358;6.382;2023-05-12T18:45:07;102124.69;;;17.67;87.90
17855;BME280;9053;53.358;6.382;2023-05-12T18:47:37;102121.94;;;17.64;87.46
17855;BME280;9053;53.358;6.382;2023-05-12T18:50:09;102126.41;;;17.65;86.68
17855;BME280;9053;53.358;6.382;2023-05-12T18:52:41;102118.38;;;17.63;86.04
17855;BME280;9053;53.358;6.382;2023-05-12T18:55:11;102130.75;;;17.61;85.32
17855;BME280;9053;53.358;6.382;2023-05-12T18:57:41;102127.13;;;17.58;84.63
17855;BME280;9053;53.358;6.382;2023-05-12T19:00:14;102136.81;;;17.56;83.86
17855;BME280;9053;53.358;6.382;2023-05-12T19:02:44;102139.44;;;17.54;83.06
17855;BME280;9053;53.358;6.382;2023-05-12T19:05:14;102136.72;;;17.52;82.32
17855;BME280;9053;53.358;6.382;2023-05-12T19:07:46;102135.84;;;17.52;81.94